createdAt,value
2019-05-18T00:00:10.140Z,99.60
2019-05-18T00:02:41.282Z,99.90
2019-05-18T00:05:12.123Z,99.90
2019-05-18T00:07:41.624Z,99.90
2019-05-18T00:10:11.337Z,99.90
2019-05-18T00:12:41.021Z,99.90
2019-05-18T00:15:10.788Z,99.90
2019-05-18T00:17:40.320Z,99.90
2019-05-18T00:20:10.083Z,99.90
2019-05-18T00:22:39.557Z,99.90
2019-05-18T00:25:09.237Z,99.90
2019-05-18T00:27:38.769Z,99.90
2019-05-18T00:30:09.154Z,99.90
2019-05-18T00:32:38.723Z,99.90
2019-05-18T00:35:08.538Z,99.90
2019-05-18T00:37:38.448Z,99.90
2019-05-18T00:40:08.358Z,99.90
2019-05-18T00:42:37.801Z,99.90
2019-05-18T00:45:08.194Z,99.90
2019-05-18T00:47:41.431Z,99.90
2019-05-18T00:50:09.302Z,99.90
2019-05-18T00:52:40.352Z,99.90
2019-05-18T00:55:10.256Z,99.90
2019-05-18T00:57:39.695Z,99.90
2019-05-18T01:00:09.990Z,99.90
2019-05-18T01:02:40.503Z,99.90
2019-05-18T01:05:10.125Z,99.90
2019-05-18T01:07:39.627Z,99.90
2019-05-18T01:10:09.750Z,99.90
2019-05-18T01:12:39.390Z,99.90
2019-05-18T01:15:09.499Z,99.90
2019-05-18T01:17:38.942Z,99.90
2019-05-18T01:20:08.933Z,99.90
2019-05-18T01:22:38.441Z,99.90
2019-05-18T01:25:08.453Z,99.90
2019-05-18T01:27:37.963Z,99.90
2019-05-18T01:30:08.462Z,99.90
2019-05-18T01:32:37.972Z,99.90
2019-05-18T01:35:08.167Z,99.90
2019-05-18T01:37:37.740Z,99.90
2019-05-18T01:40:07.636Z,99.90
2019-05-18T01:42:37.307Z,99.90
2019-05-18T01:45:16.239Z,99.90
2019-05-18T01:47:39.456Z,99.90
2019-05-18T01:50:09.682Z,99.90
2019-05-18T01:52:39.091Z,99.90
2019-05-18T01:55:09.875Z,99.90
2019-05-18T01:57:39.325Z,99.90
2019-05-18T02:00:10.441Z,99.90
2019-05-18T02:02:39.880Z,99.90
2019-05-18T02:05:09.513Z,99.90
2019-05-18T02:07:39.030Z,99.90
2019-05-18T02:10:09.651Z,99.90
2019-05-18T02:12:39.102Z,99.90
2019-05-18T02:15:09.213Z,99.90
2019-05-18T02:17:38.671Z,99.90
2019-05-18T02:20:08.782Z,99.90
2019-05-18T02:22:38.312Z,99.90
2019-05-18T02:25:08.114Z,99.90
2019-05-18T02:27:38.648Z,99.90
2019-05-18T02:30:08.681Z,99.90
2019-05-18T02:32:38.850Z,99.90
2019-05-18T02:35:08.562Z,99.90
2019-05-18T02:37:38.073Z,99.90
2019-05-18T02:40:07.995Z,99.90
2019-05-18T02:42:37.699Z,99.90
2019-05-18T02:45:07.801Z,99.90
2019-05-18T02:47:37.403Z,99.90
2019-05-18T02:50:07.812Z,99.90
2019-05-18T02:52:38.256Z,99.90
2019-05-18T02:55:08.235Z,99.90
2019-05-18T02:57:37.698Z,99.90
2019-05-18T03:00:11.332Z,99.90
2019-05-18T03:02:40.779Z,99.90
2019-05-18T03:05:10.411Z,99.90
2019-05-18T03:07:39.920Z,99.90
2019-05-18T03:10:09.639Z,99.90
2019-05-18T03:12:39.233Z,99.90
2019-05-18T03:15:08.820Z,99.90
2019-05-18T03:17:38.964Z,99.90
2019-05-18T03:20:09.446Z,99.90
2019-05-18T03:22:38.986Z,99.90
2019-05-18T03:25:08.793Z,99.90
2019-05-18T03:27:38.241Z,99.90
2019-05-18T03:30:08.330Z,99.90
2019-05-18T03:32:37.865Z,99.90
2019-05-18T03:35:08.067Z,99.90
2019-05-18T03:37:37.528Z,99.90
2019-05-18T03:40:07.518Z,99.90
2019-05-18T03:42:36.996Z,99.90
2019-05-18T03:45:07.181Z,99.90
2019-05-18T03:47:36.654Z,99.90
2019-05-18T03:50:07.643Z,99.90
2019-05-18T03:52:37.112Z,99.90
2019-05-18T03:55:06.805Z,99.90
2019-05-18T03:57:36.265Z,99.90
2019-05-18T04:00:09.262Z,99.90
2019-05-18T04:02:38.811Z,99.90
2019-05-18T04:05:08.491Z,99.90
2019-05-18T04:07:37.965Z,99.90
2019-05-18T04:10:08.854Z,99.90
2019-05-18T04:12:38.330Z,99.90
2019-05-18T04:15:10.205Z,99.90
2019-05-18T04:17:39.654Z,99.90
2019-05-18T04:20:09.537Z,99.90
2019-05-18T04:22:39.022Z,99.90
2019-05-18T04:25:08.539Z,99.90
2019-05-18T04:27:38.006Z,99.90
2019-05-18T04:30:08.194Z,99.90
2019-05-18T04:32:37.793Z,99.90
2019-05-18T04:35:08.388Z,99.90
2019-05-18T04:37:37.850Z,99.90
2019-05-18T04:40:08.439Z,99.90
2019-05-18T04:42:37.909Z,99.90
2019-05-18T04:45:07.788Z,99.90
2019-05-18T04:47:37.280Z,99.90
2019-05-18T04:50:09.180Z,99.90
2019-05-18T04:52:38.643Z,99.90
2019-05-18T04:55:08.174Z,99.90
2019-05-18T04:57:56.973Z,99.90
2019-05-18T05:00:26.484Z,99.90
2019-05-18T05:02:55.949Z,99.90
2019-05-18T05:05:25.671Z,99.90
2019-05-18T05:07:55.141Z,99.90
2019-05-18T05:10:24.581Z,99.90
2019-05-18T05:12:55.109Z,99.90
2019-05-18T05:15:24.540Z,99.90
2019-05-18T05:17:54.006Z,99.90
2019-05-18T05:20:23.468Z,99.90
2019-05-18T05:22:52.933Z,99.90
2019-05-18T05:25:22.379Z,99.90
2019-05-18T05:27:51.845Z,99.90
2019-05-18T05:30:21.284Z,99.90
2019-05-18T05:32:50.759Z,99.90
2019-05-18T05:35:20.221Z,98.40
2019-05-18T05:37:49.682Z,96.90
2019-05-18T05:40:19.703Z,97.00
2019-05-18T05:42:49.170Z,96.10
2019-05-18T05:45:18.681Z,94.30
2019-05-18T05:47:48.146Z,94.00
2019-05-18T05:50:17.738Z,94.00
2019-05-18T05:52:47.197Z,92.90
2019-05-18T05:55:16.970Z,93.30
2019-05-18T05:57:46.439Z,93.10
2019-05-18T06:00:16.126Z,92.20
2019-05-18T06:02:45.681Z,90.80
2019-05-18T06:05:15.557Z,90.30
2019-05-18T06:07:45.022Z,90.50
2019-05-18T06:10:14.606Z,90.30
2019-05-18T06:12:44.097Z,89.90
2019-05-18T06:15:15.689Z,90.40
2019-05-18T06:17:45.173Z,90.70
2019-05-18T06:20:15.037Z,90.70
2019-05-18T06:22:44.495Z,91.70
2019-05-18T06:25:14.095Z,92.10
2019-05-18T06:27:43.535Z,92.50
2019-05-18T06:30:13.638Z,92.40
2019-05-18T06:32:43.078Z,91.60
2019-05-18T06:35:15.408Z,91.10
2019-05-18T06:37:44.853Z,91.60
2019-05-18T06:40:14.399Z,90.90
2019-05-18T06:42:43.845Z,91.50
2019-05-18T06:45:13.645Z,91.70
2019-05-18T06:47:43.081Z,90.80
2019-05-18T06:50:13.392Z,90.10
2019-05-18T06:52:42.947Z,90.10
2019-05-18T06:55:13.250Z,88.80
2019-05-18T06:57:44.325Z,89.10
2019-05-18T07:00:15.804Z,89.90
2019-05-18T07:02:45.247Z,89.80
2019-05-18T07:05:14.724Z,87.00
2019-05-18T07:07:44.237Z,84.10
2019-05-18T07:10:13.941Z,82.90
2019-05-18T07:12:43.458Z,79.30
2019-05-18T07:15:13.762Z,80.90
2019-05-18T07:17:43.278Z,80.50
2019-05-18T07:20:13.982Z,76.40
2019-05-18T07:22:43.423Z,69.20
2019-05-18T07:25:13.828Z,68.70
2019-05-18T07:27:43.336Z,64.80
2019-05-18T07:30:13.255Z,62.10
2019-05-18T07:32:42.688Z,60.10
2019-05-18T07:35:12.589Z,57.80
2019-05-18T07:37:42.033Z,57.10
2019-05-18T07:40:11.642Z,56.20
2019-05-18T07:42:41.083Z,54.20
2019-05-18T07:45:10.790Z,54.60
2019-05-18T07:47:40.230Z,50.30
2019-05-18T07:50:10.342Z,48.60
2019-05-18T07:52:39.786Z,48.50
2019-05-18T07:55:09.892Z,48.60
2019-05-18T07:57:39.338Z,51.10
2019-05-18T08:00:09.989Z,51.70
2019-05-18T08:02:39.405Z,48.50
2019-05-18T08:05:09.201Z,48.90
2019-05-18T08:07:38.786Z,43.00
2019-05-18T08:10:09.559Z,45.80
2019-05-18T08:12:39.067Z,47.10
2019-05-18T08:15:12.080Z,44.00
2019-05-18T08:17:41.530Z,44.40
2019-05-18T08:20:11.737Z,44.40
2019-05-18T08:22:41.178Z,44.10
2019-05-18T08:25:10.812Z,40.90
2019-05-18T08:27:40.255Z,39.50
2019-05-18T08:30:09.969Z,41.50
2019-05-18T08:32:39.431Z,40.40
2019-05-18T08:35:09.759Z,43.80
2019-05-18T08:37:39.201Z,41.50
2019-05-18T08:40:09.902Z,41.80
2019-05-18T08:42:39.409Z,44.90
2019-05-18T08:45:09.707Z,44.60
2019-05-18T08:47:39.162Z,45.20
2019-05-18T08:50:10.077Z,43.80
2019-05-18T08:52:40.381Z,42.20
2019-05-18T08:55:10.191Z,40.70
2019-05-18T08:57:39.710Z,40.50
2019-05-18T09:00:10.827Z,41.60
2019-05-18T09:02:40.337Z,40.80
2019-05-18T09:05:10.239Z,42.70
2019-05-18T09:07:42.365Z,42.20
2019-05-18T09:10:14.237Z,42.10
2019-05-18T09:12:43.691Z,40.70
2019-05-18T09:15:13.390Z,39.10
2019-05-18T09:17:42.829Z,38.70
2019-05-18T09:20:12.988Z,37.30
2019-05-18T09:22:42.433Z,41.60
2019-05-18T09:25:12.344Z,40.70
2019-05-18T09:27:41.863Z,37.80
2019-05-18T09:30:11.747Z,40.10
2019-05-18T09:32:41.229Z,40.20
2019-05-18T09:35:12.343Z,39.00
2019-05-18T09:37:41.852Z,36.60
2019-05-18T09:40:12.366Z,36.20
2019-05-18T09:42:41.907Z,37.20
2019-05-18T09:45:12.400Z,36.20
2019-05-18T09:47:42.010Z,36.20
2019-05-18T09:50:13.186Z,35.80
2019-05-18T09:52:45.325Z,36.40
2019-05-18T09:55:14.140Z,38.50
2019-05-18T09:57:43.758Z,38.00
2019-05-18T10:00:14.000Z,37.00
2019-05-18T10:02:43.528Z,32.30
2019-05-18T10:05:14.373Z,34.00
2019-05-18T10:07:43.921Z,34.80
2019-05-18T10:10:13.589Z,33.30
2019-05-18T10:12:43.062Z,33.20
2019-05-18T10:15:12.656Z,31.60
2019-05-18T10:17:42.181Z,31.80
2019-05-18T10:20:11.818Z,33.50
2019-05-18T10:22:55.581Z,35.00
2019-05-18T10:25:13.629Z,35.40
2019-05-18T10:27:43.091Z,35.20
2019-05-18T10:30:13.175Z,29.80
2019-05-18T10:32:42.649Z,30.80
2019-05-18T10:35:13.714Z,27.80
2019-05-18T10:37:43.177Z,26.80
2019-05-18T10:40:13.258Z,29.30
2019-05-18T10:42:42.741Z,29.40
2019-05-18T10:45:12.813Z,29.60
2019-05-18T10:47:42.410Z,28.00
2019-05-18T10:50:12.085Z,27.60
2019-05-18T10:52:41.567Z,27.10
2019-05-18T10:55:11.445Z,27.70
2019-05-18T10:57:40.992Z,25.70
2019-05-18T11:00:11.870Z,22.40
2019-05-18T11:02:41.509Z,22.80
2019-05-18T11:05:11.149Z,24.60
2019-05-18T11:07:40.635Z,26.10
2019-05-18T11:10:10.797Z,29.50
2019-05-18T11:12:40.778Z,29.60
2019-05-18T11:15:11.459Z,29.70
2019-05-18T11:17:40.992Z,29.50
2019-05-18T11:20:11.591Z,28.60
2019-05-18T11:22:41.121Z,28.70
2019-05-18T11:25:11.769Z,28.20
2019-05-18T11:27:41.238Z,26.70
2019-05-18T11:30:13.368Z,27.80
2019-05-18T11:32:42.823Z,25.40
2019-05-18T11:35:13.010Z,24.90
2019-05-18T11:37:42.477Z,25.10
2019-05-18T11:40:12.553Z,25.60
2019-05-18T11:42:42.062Z,26.20
2019-05-18T11:45:12.980Z,26.00
2019-05-18T11:47:42.584Z,27.00
2019-05-18T11:50:13.701Z,29.20
2019-05-18T11:52:43.428Z,27.90
2019-05-18T11:55:13.061Z,28.30
2019-05-18T11:57:42.613Z,28.00
2019-05-18T12:00:15.165Z,28.50
2019-05-18T12:02:44.700Z,27.80
2019-05-18T12:05:15.180Z,26.20
2019-05-18T12:07:44.641Z,26.60
2019-05-18T12:10:16.579Z,27.80
2019-05-18T12:12:45.706Z,26.40
2019-05-18T12:15:15.585Z,27.20
2019-05-18T12:17:45.195Z,29.40
2019-05-18T12:20:16.360Z,28.80
2019-05-18T12:22:45.810Z,30.00
2019-05-18T12:25:15.491Z,29.30
2019-05-18T12:27:45.046Z,27.40
2019-05-18T12:30:14.914Z,27.80
2019-05-18T12:32:44.447Z,28.20
2019-05-18T12:35:14.425Z,26.60
2019-05-18T12:37:43.900Z,28.30
2019-05-18T12:40:16.426Z,29.60
2019-05-18T12:42:45.978Z,29.10
2019-05-18T12:45:15.957Z,29.00
2019-05-18T12:47:45.474Z,28.80
2019-05-18T12:50:15.953Z,29.60
2019-05-18T12:52:45.563Z,29.10
2019-05-18T12:55:17.148Z,29.70
2019-05-18T12:57:46.685Z,29.80
2019-05-18T13:00:17.446Z,28.60
2019-05-18T13:02:47.047Z,30.00
2019-05-18T13:05:16.967Z,29.70
2019-05-18T13:07:46.462Z,29.70
2019-05-18T13:10:17.787Z,30.40
2019-05-18T13:12:48.088Z,30.30
2019-05-18T13:15:18.874Z,27.50
2019-05-18T13:17:48.346Z,28.30
2019-05-18T13:20:18.213Z,28.80
2019-05-18T13:22:47.758Z,28.00
2019-05-18T13:25:17.730Z,29.40
2019-05-18T13:27:47.196Z,30.50
2019-05-18T13:30:19.877Z,32.10
2019-05-18T13:32:48.280Z,31.70
2019-05-18T13:35:19.332Z,31.50
2019-05-18T13:37:48.862Z,31.30
2019-05-18T13:40:18.749Z,30.80
2019-05-18T13:42:48.236Z,33.00
2019-05-18T13:45:18.404Z,30.00
2019-05-18T13:47:47.865Z,30.70
2019-05-18T13:50:17.853Z,31.70
2019-05-18T13:52:47.391Z,32.20
2019-05-18T13:55:16.907Z,32.20
2019-05-18T13:57:46.451Z,33.10
2019-05-18T14:00:17.903Z,32.10
2019-05-18T14:02:47.453Z,31.40
2019-05-18T14:05:17.338Z,30.70
2019-05-18T14:07:46.809Z,31.40
2019-05-18T14:10:17.805Z,32.50
2019-05-18T14:12:47.396Z,31.00
2019-05-18T14:15:17.046Z,30.40
2019-05-18T14:17:46.580Z,28.30
2019-05-18T14:20:16.377Z,28.10
2019-05-18T14:22:45.896Z,29.60
2019-05-18T14:25:20.061Z,29.80
2019-05-18T14:27:46.679Z,29.90
2019-05-18T14:30:16.361Z,31.00
2019-05-18T14:32:45.832Z,30.40
2019-05-18T14:35:15.431Z,32.30
2019-05-18T14:37:44.889Z,32.70
2019-05-18T14:40:14.902Z,32.00
2019-05-18T14:42:44.377Z,33.10
2019-05-18T14:45:15.522Z,32.20
2019-05-18T14:47:45.053Z,32.70
2019-05-18T14:50:16.097Z,32.70
2019-05-18T14:52:45.569Z,32.70
2019-05-18T14:55:15.858Z,32.30
2019-05-18T14:57:45.319Z,30.20
2019-05-18T15:00:15.210Z,29.90
2019-05-18T15:02:44.674Z,28.00
2019-05-18T15:05:14.263Z,29.70
2019-05-18T15:07:44.261Z,28.80
2019-05-18T15:10:14.747Z,30.00
2019-05-18T15:12:44.296Z,28.30
2019-05-18T15:15:16.138Z,29.50
2019-05-18T15:17:45.605Z,28.70
2019-05-18T15:20:16.477Z,28.90
2019-05-18T15:22:45.946Z,28.30
2019-05-18T15:25:15.636Z,28.30
2019-05-18T15:27:45.178Z,27.40
2019-05-18T15:30:15.791Z,26.60
2019-05-18T15:32:45.227Z,27.60
2019-05-18T15:35:15.109Z,26.70
2019-05-18T15:37:44.595Z,27.40
2019-05-18T15:40:14.371Z,27.80
2019-05-18T15:42:43.831Z,27.70
2019-05-18T15:45:13.625Z,28.20
2019-05-18T15:47:43.083Z,28.40
2019-05-18T15:50:15.128Z,27.90
2019-05-18T15:52:44.598Z,27.00
2019-05-18T15:55:14.177Z,26.90
2019-05-18T15:57:43.646Z,26.00
2019-05-18T16:00:14.397Z,25.80
2019-05-18T16:02:43.934Z,25.90
2019-05-18T16:05:13.919Z,27.00
2019-05-18T16:07:43.455Z,26.80
2019-05-18T16:10:13.351Z,26.30
2019-05-18T16:12:42.889Z,26.00
2019-05-18T16:15:13.544Z,27.00
2019-05-18T16:17:43.012Z,26.70
2019-05-18T16:20:12.992Z,27.10
2019-05-18T16:22:44.381Z,26.20
2019-05-18T16:25:14.145Z,26.40
2019-05-18T16:27:43.682Z,26.50
2019-05-18T16:30:13.780Z,27.00
2019-05-18T16:32:43.303Z,26.40
2019-05-18T16:35:13.450Z,26.60
2019-05-18T16:37:42.925Z,25.90
2019-05-18T16:40:12.573Z,24.60
2019-05-18T16:42:42.116Z,25.50
2019-05-18T16:45:15.218Z,25.10
2019-05-18T16:47:44.695Z,26.30
2019-05-18T16:50:14.364Z,26.10
2019-05-18T16:52:43.845Z,26.50
2019-05-18T16:55:13.583Z,25.40
2019-05-18T16:57:42.999Z,25.80
2019-05-18T17:00:15.960Z,25.30
2019-05-18T17:02:44.143Z,26.00
2019-05-18T17:05:14.350Z,26.40
2019-05-18T17:07:43.802Z,27.10
2019-05-18T17:10:13.878Z,27.60
2019-05-18T17:12:43.395Z,28.00
2019-05-18T17:15:13.104Z,28.90
2019-05-18T17:17:42.543Z,29.10
2019-05-18T17:20:12.522Z,29.30
2019-05-18T17:22:41.999Z,29.90
2019-05-18T17:25:13.063Z,30.60
2019-05-18T17:27:42.573Z,30.70
2019-05-18T17:30:12.674Z,30.50
2019-05-18T17:32:42.118Z,30.60
2019-05-18T17:35:11.929Z,31.00
2019-05-18T17:37:41.439Z,31.10
2019-05-18T17:40:11.254Z,31.90
2019-05-18T17:42:40.711Z,31.50
2019-05-18T17:45:11.512Z,32.00
2019-05-18T17:47:41.036Z,32.00
2019-05-18T17:50:11.660Z,33.00
2019-05-18T17:52:41.149Z,33.10
2019-05-18T17:55:10.947Z,33.90
2019-05-18T17:57:40.532Z,34.60
2019-05-18T18:00:11.010Z,35.90
2019-05-18T18:02:40.954Z,36.30
2019-05-18T18:05:10.858Z,37.30
2019-05-18T18:07:40.373Z,39.10
2019-05-18T18:10:10.445Z,40.80
2019-05-18T18:12:40.095Z,42.20
2019-05-18T18:15:09.767Z,43.90
2019-05-18T18:17:39.216Z,45.10
2019-05-18T18:20:09.006Z,46.20
2019-05-18T18:22:38.514Z,47.80
2019-05-18T18:25:08.230Z,49.10
2019-05-18T18:27:37.753Z,50.40
2019-05-18T18:30:09.070Z,51.40
2019-05-18T18:32:38.732Z,52.60
2019-05-18T18:35:08.642Z,53.80
2019-05-18T18:37:38.153Z,54.60
2019-05-18T18:40:08.260Z,55.40
2019-05-18T18:42:37.797Z,56.10
2019-05-18T18:45:07.911Z,56.80
2019-05-18T18:47:37.493Z,57.40
2019-05-18T18:50:07.605Z,58.30
2019-05-18T18:52:37.254Z,59.10
2019-05-18T18:55:08.062Z,59.70
2019-05-18T18:57:41.771Z,60.70
2019-05-18T19:00:09.295Z,62.00
2019-05-18T19:02:39.049Z,62.60
2019-05-18T19:05:09.282Z,63.10
2019-05-18T19:07:39.330Z,63.50
2019-05-18T19:10:09.614Z,64.10
2019-05-18T19:12:39.185Z,64.40
2019-05-18T19:15:09.800Z,65.30
2019-05-18T19:17:39.383Z,65.70
2019-05-18T19:20:09.390Z,66.30
2019-05-18T19:22:38.831Z,66.50
2019-05-18T19:25:08.536Z,67.00
2019-05-18T19:27:38.049Z,67.30
2019-05-18T19:30:10.059Z,67.50
2019-05-18T19:32:39.129Z,68.40
2019-05-18T19:35:08.738Z,68.10
2019-05-18T19:37:39.256Z,68.60
2019-05-18T19:40:09.140Z,69.00
2019-05-18T19:42:38.581Z,69.00
2019-05-18T19:45:10.210Z,69.20
2019-05-18T19:47:39.715Z,69.80
2019-05-18T19:50:09.749Z,69.90
2019-05-18T19:52:39.182Z,69.90
2019-05-18T19:55:09.037Z,70.60
2019-05-18T19:57:38.511Z,70.90
2019-05-18T20:00:10.050Z,70.90
2019-05-18T20:02:39.510Z,71.50
2019-05-18T20:05:09.636Z,71.60
2019-05-18T20:07:40.369Z,71.70
2019-05-18T20:10:10.456Z,71.40
2019-05-18T20:12:39.994Z,71.60
2019-05-18T20:15:10.089Z,72.00
2019-05-18T20:17:40.684Z,72.80
2019-05-18T20:20:10.675Z,73.40
2019-05-18T20:22:40.147Z,73.90
2019-05-18T20:25:09.925Z,74.40
2019-05-18T20:27:39.470Z,74.70
2019-05-18T20:30:09.320Z,74.60
2019-05-18T20:32:38.861Z,74.70
2019-05-18T20:35:09.631Z,74.70
2019-05-18T20:37:39.111Z,75.10
2019-05-18T20:40:10.366Z,75.00
2019-05-18T20:42:39.838Z,75.20
2019-05-18T20:45:09.814Z,75.00
2019-05-18T20:47:39.283Z,74.40
2019-05-18T20:50:09.378Z,74.60
2019-05-18T20:52:38.849Z,74.20
2019-05-18T20:55:08.570Z,74.30
2019-05-18T20:57:38.099Z,73.80
2019-05-18T21:00:08.178Z,73.90
2019-05-18T21:02:39.260Z,73.80
2019-05-18T21:05:10.310Z,73.60
2019-05-18T21:07:39.776Z,74.00
2019-05-18T21:10:09.558Z,73.90
2019-05-18T21:12:39.231Z,74.60
2019-05-18T21:15:10.427Z,74.70
2019-05-18T21:17:41.489Z,75.10
2019-05-18T21:20:12.684Z,75.30
2019-05-18T21:22:42.150Z,76.50
2019-05-18T21:25:12.956Z,76.70
2019-05-18T21:27:42.401Z,77.70
2019-05-18T21:30:12.015Z,78.70
2019-05-18T21:32:41.475Z,79.70
2019-05-18T21:35:11.233Z,80.00
2019-05-18T21:37:40.696Z,79.60
2019-05-18T21:40:10.372Z,80.00
2019-05-18T21:42:39.843Z,80.30
2019-05-18T21:45:09.474Z,80.90
2019-05-18T21:47:38.890Z,81.90
2019-05-18T21:50:08.771Z,83.00
2019-05-18T21:52:38.226Z,83.50
2019-05-18T21:55:08.472Z,83.80
2019-05-18T21:57:37.955Z,85.40
2019-05-18T22:00:09.438Z,86.40
2019-05-18T22:02:40.518Z,88.10
2019-05-18T22:05:10.802Z,88.20
2019-05-18T22:07:40.282Z,89.00
2019-05-18T22:10:24.749Z,89.50
2019-05-18T22:12:41.252Z,90.50
2019-05-18T22:15:11.340Z,90.10
2019-05-18T22:17:58.724Z,90.00
2019-05-18T22:20:28.167Z,90.10
2019-05-18T22:22:57.708Z,90.50
2019-05-18T22:25:27.137Z,90.90
2019-05-18T22:27:56.603Z,90.80
2019-05-18T22:30:26.113Z,90.70
2019-05-18T22:32:55.576Z,91.00
2019-05-18T22:35:25.093Z,91.20
2019-05-18T22:37:54.553Z,91.20
2019-05-18T22:40:24.037Z,91.40
2019-05-18T22:42:53.542Z,91.50
2019-05-18T22:45:22.983Z,91.60
2019-05-18T22:47:52.518Z,91.90
2019-05-18T22:50:22.104Z,92.00
2019-05-18T22:52:51.585Z,91.90
2019-05-18T22:55:21.002Z,91.90
2019-05-18T22:57:50.474Z,92.20
2019-05-18T23:00:20.174Z,92.20
2019-05-18T23:02:49.804Z,92.60
2019-05-18T23:05:19.279Z,93.00
2019-05-18T23:07:48.752Z,93.20
2019-05-18T23:10:18.329Z,93.20
2019-05-18T23:12:47.812Z,93.40
2019-05-18T23:15:17.390Z,93.30
2019-05-18T23:17:46.888Z,93.30
2019-05-18T23:20:16.551Z,93.50
2019-05-18T23:22:46.029Z,93.70
2019-05-18T23:25:15.600Z,93.80
2019-05-18T23:27:45.132Z,93.80
2019-05-18T23:30:14.912Z,94.00
2019-05-18T23:32:44.366Z,94.00
2019-05-18T23:35:13.879Z,94.00
2019-05-18T23:37:43.343Z,94.10
2019-05-18T23:40:14.516Z,94.10
2019-05-18T23:42:43.958Z,94.00
2019-05-18T23:45:16.293Z,94.40
2019-05-18T23:47:45.764Z,94.20
2019-05-18T23:50:15.342Z,94.40
2019-05-18T23:52:44.877Z,94.50
2019-05-18T23:55:14.501Z,94.90
2019-05-18T23:57:43.919Z,94.70
